createdAt,value
2023-04-09T00:00:30.597Z,45.87
2023-04-09T00:01:30.771Z,43.53
2023-04-09T00:02:30.691Z,42.43
2023-04-09T00:03:30.760Z,46.78
2023-04-09T00:04:30.799Z,45.14
2023-04-09T00:05:30.744Z,48.05
2023-04-09T00:06:30.802Z,45.01
2023-04-09T00:07:30.831Z,45.17
2023-04-09T00:08:30.859Z,46.97
2023-04-09T00:09:30.929Z,45.03
2023-04-09T00:10:30.937Z,46.66
2023-04-09T00:11:30.995Z,44.97
2023-04-09T00:12:31.016Z,44.68
2023-04-09T00:13:38.596Z,44.89
2023-04-09T00:14:32.096Z,45.18
2023-04-09T00:15:31.847Z,45.01
2023-04-09T00:16:31.066Z,45.23
2023-04-09T00:17:31.097Z,45.62
2023-04-09T00:18:31.069Z,47.24
2023-04-09T00:19:31.012Z,46.64
2023-04-09T00:20:31.046Z,46.60
2023-04-09T00:21:30.976Z,48.06
2023-04-09T00:22:31.015Z,47.25
2023-04-09T00:23:30.966Z,44.32
2023-04-09T00:24:30.988Z,45.28
2023-04-09T00:25:31.038Z,43.88
2023-04-09T00:26:31.168Z,45.13
2023-04-09T00:27:31.093Z,47.17
2023-04-09T00:28:31.126Z,46.00
2023-04-09T00:29:31.202Z,46.73
2023-04-09T00:30:31.245Z,44.84
2023-04-09T00:31:31.334Z,45.00
2023-04-09T00:32:31.325Z,45.26
2023-04-09T00:33:31.348Z,45.94
2023-04-09T00:34:31.374Z,45.15
2023-04-09T00:35:31.486Z,47.56
2023-04-09T00:36:31.469Z,47.69
2023-04-09T00:37:31.527Z,43.08
2023-04-09T00:38:31.596Z,48.65
2023-04-09T00:39:31.591Z,48.76
2023-04-09T00:40:31.698Z,42.96
2023-04-09T00:41:31.715Z,45.05
2023-04-09T00:42:31.784Z,47.51
2023-04-09T00:43:31.768Z,46.87
2023-04-09T00:44:31.862Z,42.96
2023-04-09T00:45:31.951Z,44.31
2023-04-09T00:46:31.938Z,44.86
2023-04-09T00:47:31.997Z,43.98
2023-04-09T00:48:32.007Z,41.46
2023-04-09T00:49:32.066Z,47.01
2023-04-09T00:50:32.109Z,44.03
2023-04-09T00:51:32.136Z,44.00
2023-04-09T00:52:32.189Z,42.95
2023-04-09T00:53:32.245Z,45.35
2023-04-09T00:54:32.319Z,46.85
2023-04-09T00:55:32.366Z,45.25
2023-04-09T00:56:32.367Z,44.84
2023-04-09T00:57:32.486Z,43.60
2023-04-09T00:58:32.480Z,46.87
2023-04-09T00:59:32.508Z,47.26
2023-04-09T01:00:32.602Z,43.94
2023-04-09T01:01:32.790Z,44.43
2023-04-09T01:02:32.763Z,43.55
2023-04-09T01:03:32.865Z,44.79
2023-04-09T01:04:32.782Z,44.24
2023-04-09T01:05:32.817Z,46.79
2023-04-09T01:06:32.841Z,44.92
2023-04-09T01:07:32.952Z,43.18
2023-04-09T01:08:32.997Z,45.33
2023-04-09T01:09:33.022Z,44.85
2023-04-09T01:10:33.083Z,44.67
2023-04-09T01:11:33.147Z,41.47
2023-04-09T01:12:33.203Z,43.52
2023-04-09T01:13:33.252Z,43.15
2023-04-09T01:14:33.274Z,44.86
2023-04-09T01:15:33.317Z,46.52
2023-04-09T01:16:33.434Z,44.07
2023-04-09T01:17:33.456Z,44.00
2023-04-09T01:18:33.487Z,43.45
2023-04-09T01:19:33.509Z,44.42
2023-04-09T01:20:33.559Z,42.53
2023-04-09T01:21:33.614Z,46.09
2023-04-09T01:22:33.679Z,43.49
2023-04-09T01:23:33.725Z,45.59
2023-04-09T01:24:33.751Z,46.81
2023-04-09T01:25:33.790Z,42.82
2023-04-09T01:26:33.845Z,42.96
2023-04-09T01:27:33.905Z,44.17
2023-04-09T01:28:33.961Z,44.14
2023-04-09T01:29:34.028Z,43.27
2023-04-09T01:30:34.105Z,42.70
2023-04-09T01:31:34.099Z,42.31
2023-04-09T01:32:34.158Z,43.13
2023-04-09T01:33:34.146Z,45.67
2023-04-09T01:34:34.244Z,42.90
2023-04-09T01:35:34.280Z,45.13
2023-04-09T01:36:34.340Z,44.58
2023-04-09T01:37:34.388Z,42.35
2023-04-09T01:38:34.434Z,42.85
2023-04-09T01:39:34.459Z,46.38
2023-04-09T01:40:34.514Z,44.53
2023-04-09T01:41:34.578Z,46.30
2023-04-09T01:42:34.601Z,44.97
2023-04-09T01:43:34.753Z,44.63
2023-04-09T01:44:34.697Z,44.37
2023-04-09T01:45:34.763Z,42.61
2023-04-09T01:46:34.845Z,44.76
2023-04-09T01:47:34.861Z,42.81
2023-04-09T01:48:34.936Z,44.90
2023-04-09T01:49:34.968Z,43.62
2023-04-09T01:50:34.998Z,44.39
2023-04-09T01:51:35.053Z,44.46
2023-04-09T01:52:35.208Z,43.82
2023-04-09T01:53:35.192Z,40.30
2023-04-09T01:54:35.222Z,45.50
2023-04-09T01:55:35.247Z,42.09
2023-04-09T01:56:35.344Z,46.81
2023-04-09T01:57:35.356Z,44.89
2023-04-09T01:58:35.442Z,42.73
2023-04-09T01:59:35.563Z,45.32
2023-04-09T02:00:35.518Z,44.42
2023-04-09T02:01:35.721Z,44.01
2023-04-09T02:02:35.763Z,44.56
2023-04-09T02:03:35.754Z,44.76
2023-04-09T02:04:35.705Z,41.75
2023-04-09T02:05:35.817Z,42.37
2023-04-09T02:06:35.874Z,45.29
2023-04-09T02:07:35.908Z,43.93
2023-04-09T02:08:35.995Z,43.57
2023-04-09T02:09:36.035Z,45.06
2023-04-09T02:10:36.044Z,44.93
2023-04-09T02:11:36.144Z,46.97
2023-04-09T02:12:36.150Z,45.71
2023-04-09T02:13:36.226Z,43.14
2023-04-09T02:14:36.272Z,46.57
2023-04-09T02:15:36.372Z,44.87
2023-04-09T02:16:36.403Z,45.37
2023-04-09T02:17:36.463Z,43.39
2023-04-09T02:18:36.493Z,43.45
2023-04-09T02:19:36.532Z,43.07
2023-04-09T02:20:36.604Z,45.68
2023-04-09T02:21:36.698Z,43.48
2023-04-09T02:22:36.747Z,43.70
2023-04-09T02:23:36.762Z,42.87
2023-04-09T02:24:36.819Z,43.90
2023-04-09T02:25:36.865Z,45.25
2023-04-09T02:26:36.924Z,44.58
2023-04-09T02:27:36.979Z,44.51
2023-04-09T02:28:37.047Z,43.74
2023-04-09T02:29:37.093Z,44.20
2023-04-09T02:30:37.153Z,43.24
2023-04-09T02:31:37.230Z,45.20
2023-04-09T02:32:37.303Z,43.50
2023-04-09T02:33:37.328Z,44.24
2023-04-09T02:34:37.410Z,43.29
2023-04-09T02:35:37.468Z,47.90
2023-04-09T02:36:37.555Z,43.86
2023-04-09T02:37:37.547Z,47.57
2023-04-09T02:38:37.660Z,42.40
2023-04-09T02:39:37.681Z,44.15
2023-04-09T02:40:37.737Z,42.70
2023-04-09T02:41:37.851Z,42.19
2023-04-09T02:42:37.862Z,43.49
2023-04-09T02:43:37.976Z,43.90
2023-04-09T02:44:38.035Z,42.24
2023-04-09T02:45:38.035Z,43.61
2023-04-09T02:46:38.116Z,41.24
2023-04-09T02:47:38.232Z,44.87
2023-04-09T02:48:38.220Z,43.53
2023-04-09T02:49:38.319Z,48.58
2023-04-09T02:50:38.429Z,47.34
2023-04-09T02:51:38.416Z,44.85
2023-04-09T02:52:38.483Z,47.21
2023-04-09T02:53:38.535Z,42.64
2023-04-09T02:54:38.597Z,47.45
2023-04-09T02:55:38.669Z,43.65
2023-04-09T02:56:38.735Z,45.44
2023-04-09T02:57:38.794Z,44.07
2023-04-09T02:58:38.828Z,43.44
2023-04-09T02:59:38.904Z,43.63
2023-04-09T03:00:38.961Z,42.78
2023-04-09T03:01:39.141Z,46.51
2023-04-09T03:02:39.156Z,42.16
2023-04-09T03:03:39.269Z,42.07
2023-04-09T03:04:39.180Z,43.29
2023-04-09T03:05:39.261Z,42.03
2023-04-09T03:06:39.362Z,44.98
2023-04-09T03:07:39.486Z,42.86
2023-04-09T03:08:39.404Z,42.89
2023-04-09T03:09:39.510Z,46.85
2023-04-09T03:10:39.547Z,44.37
2023-04-09T03:11:39.614Z,41.67
2023-04-09T03:12:39.653Z,43.68
2023-04-09T03:13:39.670Z,42.66
2023-04-09T03:14:39.793Z,39.95
2023-04-09T03:15:39.786Z,38.73
2023-04-09T03:16:39.874Z,39.85
2023-04-09T03:17:39.984Z,41.44
2023-04-09T03:18:39.993Z,42.07
2023-04-09T03:19:40.072Z,42.45
2023-04-09T03:20:40.116Z,41.14
2023-04-09T03:21:40.174Z,42.37
2023-04-09T03:22:40.233Z,40.44
2023-04-09T03:23:40.220Z,42.61
2023-04-09T03:24:40.300Z,40.66
2023-04-09T03:25:40.332Z,41.51
2023-04-09T03:26:40.415Z,41.45
2023-04-09T03:27:40.632Z,42.25
2023-04-09T03:28:40.565Z,41.89
2023-04-09T03:29:40.610Z,43.54
2023-04-09T03:30:40.632Z,40.86
2023-04-09T03:31:40.787Z,41.70
2023-04-09T03:32:40.803Z,42.94
2023-04-09T03:33:40.812Z,43.33
2023-04-09T03:34:40.871Z,43.10
2023-04-09T03:35:40.955Z,41.13
2023-04-09T03:36:41.035Z,42.29
2023-04-09T03:37:41.110Z,43.73
2023-04-09T03:38:41.154Z,40.61
2023-04-09T03:39:41.217Z,40.72
2023-04-09T03:40:41.262Z,44.31
2023-04-09T03:41:41.237Z,47.59
2023-04-09T03:42:41.281Z,43.16
2023-04-09T03:43:41.302Z,42.43
2023-04-09T03:44:41.363Z,43.30
2023-04-09T03:45:41.399Z,43.13
2023-04-09T03:46:41.436Z,42.71
2023-04-09T03:47:41.455Z,39.34
2023-04-09T03:48:41.448Z,42.00
2023-04-09T03:49:41.498Z,41.98
2023-04-09T03:50:41.548Z,39.19
2023-04-09T03:51:41.550Z,43.33
2023-04-09T03:52:41.617Z,41.46
2023-04-09T03:53:41.617Z,43.71
2023-04-09T03:54:41.663Z,41.39
2023-04-09T03:55:41.676Z,40.20
2023-04-09T03:56:41.747Z,41.76
2023-04-09T03:57:41.753Z,47.54
2023-04-09T03:58:41.766Z,46.46
2023-04-09T03:59:41.773Z,40.12
2023-04-09T04:00:41.796Z,40.56
2023-04-09T04:01:41.922Z,43.73
2023-04-09T04:02:42.146Z,43.50
2023-04-09T04:03:42.049Z,43.44
2023-04-09T04:04:41.972Z,44.87
2023-04-09T04:05:42.015Z,39.27
2023-04-09T04:06:42.065Z,46.83
2023-04-09T04:07:42.110Z,44.48
2023-04-09T04:08:42.161Z,40.78
2023-04-09T04:09:42.177Z,46.14
2023-04-09T04:10:42.211Z,40.07
2023-04-09T04:11:42.308Z,42.12
2023-04-09T04:12:42.394Z,41.89
2023-04-09T04:13:42.444Z,41.79
2023-04-09T04:14:42.611Z,43.58
2023-04-09T04:15:42.521Z,42.14
2023-04-09T04:16:42.834Z,42.43
2023-04-09T04:17:42.686Z,44.47
2023-04-09T04:18:42.713Z,45.31
2023-04-09T04:19:42.727Z,43.49
2023-04-09T04:20:42.777Z,44.81
2023-04-09T04:21:42.776Z,43.63
2023-04-09T04:22:42.852Z,44.30
2023-04-09T04:23:42.897Z,41.24
2023-04-09T04:24:42.851Z,45.69
2023-04-09T04:25:42.971Z,45.31
2023-04-09T04:26:42.974Z,45.38
2023-04-09T04:27:43.008Z,44.92
2023-04-09T04:28:43.099Z,43.14
2023-04-09T04:29:43.131Z,44.62
2023-04-09T04:30:43.142Z,41.70
2023-04-09T04:31:43.270Z,43.45
2023-04-09T04:32:43.213Z,46.26
2023-04-09T04:33:43.237Z,42.03
2023-04-09T04:34:43.228Z,45.70
2023-04-09T04:35:43.292Z,43.43
2023-04-09T04:36:43.295Z,45.91
2023-04-09T04:37:43.354Z,44.43
2023-04-09T04:38:43.397Z,44.84
2023-04-09T04:39:43.473Z,44.46
2023-04-09T04:40:43.479Z,40.55
2023-04-09T04:41:43.522Z,44.02
2023-04-09T04:42:43.594Z,40.24
2023-04-09T04:43:43.636Z,43.23
2023-04-09T04:44:43.657Z,45.15
2023-04-09T04:45:43.746Z,42.15
2023-04-09T04:46:43.762Z,43.46
2023-04-09T04:47:43.811Z,45.15
2023-04-09T04:48:43.867Z,44.34
2023-04-09T04:49:43.898Z,46.87
2023-04-09T04:50:43.914Z,46.00
2023-04-09T04:51:43.968Z,40.17
2023-04-09T04:52:43.954Z,44.97
2023-04-09T04:53:44.020Z,42.35
2023-04-09T04:54:44.048Z,41.53
2023-04-09T04:55:44.027Z,43.09
2023-04-09T04:56:44.095Z,44.10
2023-04-09T04:57:44.108Z,43.45
2023-04-09T04:58:44.147Z,43.18
2023-04-09T04:59:44.142Z,44.76
2023-04-09T05:00:44.256Z,43.92
2023-04-09T05:01:44.268Z,45.11
2023-04-09T05:02:44.394Z,47.31
2023-04-09T05:03:44.449Z,43.47
2023-04-09T05:04:44.363Z,43.70
2023-04-09T05:05:44.466Z,41.40
2023-04-09T05:06:44.512Z,45.41
2023-04-09T05:07:44.515Z,45.51
2023-04-09T05:08:44.620Z,44.95
2023-04-09T05:09:44.634Z,47.03
2023-04-09T05:10:44.715Z,44.23
2023-04-09T05:11:44.766Z,46.93
2023-04-09T05:12:44.825Z,45.02
2023-04-09T05:13:44.940Z,43.69
2023-04-09T05:14:44.971Z,41.57
2023-04-09T05:15:45.057Z,41.82
2023-04-09T05:16:45.135Z,41.85
2023-04-09T05:17:45.282Z,40.19
2023-04-09T05:18:45.213Z,44.98
2023-04-09T05:19:45.280Z,43.36
2023-04-09T05:20:45.334Z,40.00
2023-04-09T05:21:47.255Z,40.67
2023-04-09T05:22:45.424Z,44.09
2023-04-09T05:23:45.521Z,42.33
2023-04-09T05:24:45.560Z,43.79
2023-04-09T05:25:45.609Z,42.54
2023-04-09T05:26:45.678Z,41.86
2023-04-09T05:27:45.764Z,42.26
2023-04-09T05:28:45.841Z,46.22
2023-04-09T05:29:45.815Z,42.30
2023-04-09T05:30:45.940Z,40.81
2023-04-09T05:31:45.980Z,41.12
2023-04-09T05:32:46.118Z,44.35
2023-04-09T05:33:46.053Z,41.52
2023-04-09T05:34:46.097Z,46.63
2023-04-09T05:35:46.167Z,44.57
2023-04-09T05:36:46.166Z,44.87
2023-04-09T05:37:46.123Z,43.07
2023-04-09T05:38:46.085Z,41.61
2023-04-09T05:39:46.099Z,40.31
2023-04-09T05:40:46.159Z,43.53
2023-04-09T05:41:46.101Z,44.03
2023-04-09T05:42:46.162Z,42.68
2023-04-09T05:43:46.104Z,39.16
2023-04-09T05:44:46.104Z,41.29
2023-04-09T05:45:46.120Z,43.32
2023-04-09T05:46:46.118Z,45.55
2023-04-09T05:47:46.137Z,44.06
2023-04-09T05:48:46.052Z,42.51
2023-04-09T05:49:46.071Z,45.09
2023-04-09T05:50:54.616Z,44.48
2023-04-09T05:51:47.089Z,44.66
2023-04-09T05:52:46.103Z,40.91
2023-04-09T05:53:46.136Z,44.65
2023-04-09T05:54:46.054Z,44.14
2023-04-09T05:55:46.027Z,40.86
2023-04-09T05:56:46.078Z,45.39
2023-04-09T05:57:46.130Z,42.72
2023-04-09T05:58:46.016Z,42.82
2023-04-09T05:59:46.011Z,41.86
2023-04-09T06:00:46.009Z,42.38
2023-04-09T06:01:46.044Z,42.66
2023-04-09T06:02:46.087Z,43.00
2023-04-09T06:03:46.135Z,40.94
2023-04-09T06:04:45.995Z,43.58
2023-04-09T06:05:46.012Z,44.40
2023-04-09T06:06:46.058Z,39.31
2023-04-09T06:07:46.008Z,39.54
2023-04-09T06:08:45.980Z,43.28
2023-04-09T06:09:45.951Z,40.71
2023-04-09T06:10:45.911Z,41.61
2023-04-09T06:11:45.944Z,42.88
2023-04-09T06:12:45.910Z,40.09
2023-04-09T06:13:45.909Z,44.19
2023-04-09T06:14:45.916Z,44.16
2023-04-09T06:15:45.991Z,41.45
2023-04-09T06:16:45.944Z,44.02
2023-04-09T06:17:46.024Z,40.58
2023-04-09T06:18:46.016Z,40.41
2023-04-09T06:19:46.033Z,45.27
2023-04-09T06:20:45.984Z,43.14
2023-04-09T06:21:46.138Z,45.76
2023-04-09T06:22:46.121Z,41.68
2023-04-09T06:23:46.156Z,40.45
2023-04-09T06:24:46.172Z,42.03
2023-04-09T06:25:46.162Z,44.50
2023-04-09T06:26:46.246Z,42.84
2023-04-09T06:27:46.251Z,39.28
2023-04-09T06:28:46.272Z,40.85
2023-04-09T06:29:46.273Z,44.15
2023-04-09T06:30:46.311Z,41.39
2023-04-09T06:31:46.342Z,43.92
2023-04-09T06:32:54.457Z,41.78
2023-04-09T06:33:47.362Z,42.03
2023-04-09T06:34:46.330Z,41.85
2023-04-09T06:35:46.341Z,40.32
2023-04-09T06:36:46.304Z,43.64
2023-04-09T06:37:46.328Z,40.61
2023-04-09T06:38:46.350Z,43.52
2023-04-09T06:39:58.133Z,44.12
2023-04-09T06:40:47.282Z,44.43
2023-04-09T06:41:46.308Z,42.56
2023-04-09T06:42:46.265Z,44.77
2023-04-09T06:43:46.292Z,45.47
2023-04-09T06:44:46.268Z,42.13
2023-04-09T06:45:46.263Z,40.25
2023-04-09T06:46:46.273Z,42.73
2023-04-09T06:47:46.258Z,42.65
2023-04-09T06:48:46.280Z,43.93
2023-04-09T06:49:46.227Z,40.65
2023-04-09T06:50:46.218Z,42.01
2023-04-09T06:51:46.214Z,43.13
2023-04-09T06:52:46.200Z,41.46
2023-04-09T06:53:46.228Z,41.34
2023-04-09T06:54:46.194Z,42.79
2023-04-09T06:55:46.200Z,40.98
2023-04-09T06:56:46.289Z,42.54
2023-04-09T06:57:46.291Z,41.64
2023-04-09T06:58:46.305Z,39.14
2023-04-09T06:59:46.372Z,41.56
2023-04-09T07:00:46.412Z,41.53
2023-04-09T07:01:46.512Z,42.77
2023-04-09T07:02:46.626Z,42.38
2023-04-09T07:03:46.591Z,40.16
2023-04-09T07:04:46.593Z,42.71
2023-04-09T07:05:46.580Z,41.58
2023-04-09T07:06:46.645Z,42.50
2023-04-09T07:07:46.720Z,42.74
2023-04-09T07:08:46.804Z,39.99
2023-04-09T07:09:46.792Z,43.72
2023-04-09T07:10:46.907Z,42.49
2023-04-09T07:11:46.908Z,41.98
2023-04-09T07:12:46.958Z,44.01
2023-04-09T07:13:47.020Z,43.24
2023-04-09T07:14:47.026Z,40.13
2023-04-09T07:15:47.080Z,40.71
2023-04-09T07:16:47.085Z,44.15
2023-04-09T07:17:47.167Z,42.30
2023-04-09T07:18:47.169Z,40.71
2023-04-09T07:19:47.246Z,40.14
2023-04-09T07:20:47.300Z,38.92
2023-04-09T07:21:47.364Z,43.54
2023-04-09T07:22:47.416Z,39.61
2023-04-09T07:23:47.490Z,42.94
2023-04-09T07:24:47.525Z,38.09
2023-04-09T07:25:47.589Z,38.83
2023-04-09T07:26:47.652Z,39.63
2023-04-09T07:27:47.701Z,43.79
2023-04-09T07:28:47.721Z,39.64
2023-04-09T07:29:47.813Z,38.95
2023-04-09T07:30:47.902Z,42.80
2023-04-09T07:31:48.016Z,43.12
2023-04-09T07:32:48.053Z,39.99
2023-04-09T07:33:48.077Z,40.05
2023-04-09T07:34:48.135Z,40.79
2023-04-09T07:35:48.280Z,41.00
2023-04-09T07:36:48.245Z,43.73
2023-04-09T07:37:48.289Z,40.83
2023-04-09T07:38:48.395Z,39.12
2023-04-09T07:39:48.442Z,38.27
2023-04-09T07:40:48.525Z,40.37
2023-04-09T07:41:48.537Z,40.48
2023-04-09T07:42:48.624Z,42.95
2023-04-09T07:43:48.667Z,37.85
2023-04-09T07:44:48.752Z,37.86
2023-04-09T07:45:48.849Z,40.70
2023-04-09T07:46:48.847Z,41.65
2023-04-09T07:47:48.918Z,39.93
2023-04-09T07:48:48.940Z,38.78
2023-04-09T07:49:48.998Z,43.90
2023-04-09T07:50:49.090Z,38.93
2023-04-09T07:51:49.097Z,39.14
2023-04-09T07:52:49.124Z,37.88
2023-04-09T07:53:49.182Z,38.78
2023-04-09T07:54:49.274Z,38.50
2023-04-09T07:55:49.332Z,40.18
2023-04-09T07:56:49.366Z,37.85
2023-04-09T07:57:49.423Z,39.03
2023-04-09T07:58:49.492Z,36.28
2023-04-09T07:59:49.541Z,39.89
2023-04-09T08:00:49.561Z,37.48
2023-04-09T08:01:49.651Z,40.54
2023-04-09T08:02:49.726Z,37.30
2023-04-09T08:03:49.944Z,36.57
2023-04-09T08:04:49.839Z,40.39
2023-04-09T08:05:49.768Z,37.55
2023-04-09T08:06:49.868Z,38.09
2023-04-09T08:07:49.889Z,38.19
2023-04-09T08:08:50.012Z,36.33
2023-04-09T08:09:49.977Z,37.63
2023-04-09T08:10:50.014Z,37.67
2023-04-09T08:11:50.102Z,38.86
2023-04-09T08:12:50.124Z,37.26
2023-04-09T08:13:50.167Z,36.59
2023-04-09T08:14:50.206Z,35.94
2023-04-09T08:15:50.249Z,37.88
2023-04-09T08:16:50.537Z,36.51
2023-04-09T08:17:50.361Z,41.05
2023-04-09T08:18:50.441Z,39.07
2023-04-09T08:19:50.425Z,38.02
2023-04-09T08:20:50.418Z,37.69
2023-04-09T08:21:50.502Z,37.21
2023-04-09T08:22:50.505Z,40.16
2023-04-09T08:23:50.552Z,35.80
2023-04-09T08:24:50.574Z,36.08
2023-04-09T08:25:50.627Z,36.75
2023-04-09T08:26:50.637Z,34.95
2023-04-09T08:27:50.646Z,37.02
2023-04-09T08:28:51.072Z,37.32
2023-04-09T08:29:50.682Z,32.64
2023-04-09T08:30:50.709Z,37.00
2023-04-09T08:31:50.774Z,36.52
2023-04-09T08:32:50.783Z,38.01
2023-04-09T08:33:50.783Z,41.96
2023-04-09T08:34:50.792Z,38.48
2023-04-09T08:35:50.851Z,38.55
2023-04-09T08:36:50.938Z,39.99
2023-04-09T08:37:50.874Z,39.59
2023-04-09T08:38:50.925Z,37.86
2023-04-09T08:39:50.964Z,36.64
2023-04-09T08:40:50.965Z,41.17
2023-04-09T08:41:50.981Z,36.00
2023-04-09T08:42:51.016Z,39.20
2023-04-09T08:43:57.563Z,37.71
2023-04-09T08:44:52.019Z,37.80
2023-04-09T08:45:51.069Z,38.07
2023-04-09T08:46:51.047Z,36.01
2023-04-09T08:47:51.061Z,38.07
2023-04-09T08:48:51.159Z,39.17
2023-04-09T08:49:50.998Z,37.92
2023-04-09T08:50:51.008Z,37.93
2023-04-09T08:51:50.968Z,37.11
2023-04-09T08:52:50.949Z,37.32
2023-04-09T08:53:50.955Z,35.96
2023-04-09T08:54:50.966Z,40.10
2023-04-09T08:55:50.936Z,41.48
2023-04-09T08:56:50.935Z,34.58
2023-04-09T08:57:50.897Z,34.44
2023-04-09T08:58:51.358Z,38.93
2023-04-09T08:59:50.934Z,34.57
2023-04-09T09:00:50.913Z,36.05
2023-04-09T09:01:50.939Z,36.11
2023-04-09T09:02:50.963Z,34.58
2023-04-09T09:03:50.975Z,36.20
2023-04-09T09:04:50.942Z,38.86
2023-04-09T09:05:50.862Z,37.61
2023-04-09T09:06:50.914Z,36.90
2023-04-09T09:07:50.855Z,35.76
2023-04-09T09:08:51.132Z,36.01
2023-04-09T09:09:50.823Z,36.90
2023-04-09T09:10:50.841Z,36.83
2023-04-09T09:11:50.831Z,37.39
2023-04-09T09:12:50.843Z,35.68
2023-04-09T09:13:50.808Z,36.48
2023-04-09T09:14:50.817Z,35.77
2023-04-09T09:15:50.785Z,34.14
2023-04-09T09:16:50.832Z,34.96
2023-04-09T09:17:50.850Z,33.15
2023-04-09T09:18:52.581Z,34.26
2023-04-09T09:19:50.968Z,33.30
2023-04-09T09:20:50.960Z,34.12
2023-04-09T09:21:50.956Z,33.41
2023-04-09T09:22:54.951Z,32.57
2023-04-09T09:23:50.953Z,32.78
2023-04-09T09:24:50.944Z,33.03
2023-04-09T09:25:50.961Z,33.82
2023-04-09T09:26:50.965Z,34.20
2023-04-09T09:27:50.916Z,33.11
2023-04-09T09:29:50.927Z,33.89
2023-04-09T09:30:50.930Z,33.41
2023-04-09T09:31:50.900Z,35.17
2023-04-09T09:32:50.923Z,34.29
2023-04-09T09:33:50.895Z,30.52
2023-04-09T09:34:50.858Z,33.83
2023-04-09T09:35:50.929Z,33.93
2023-04-09T09:36:50.846Z,34.00
2023-04-09T09:37:50.828Z,33.39
2023-04-09T09:38:51.157Z,33.18
2023-04-09T09:39:50.953Z,35.70
2023-04-09T09:40:51.014Z,34.80
2023-04-09T09:41:51.072Z,33.03
2023-04-09T09:42:51.109Z,33.29
2023-04-09T09:43:51.238Z,33.14
2023-04-09T09:44:51.209Z,33.89
2023-04-09T09:45:51.278Z,31.62
2023-04-09T09:46:51.306Z,31.86
2023-04-09T09:47:51.347Z,34.27
2023-04-09T09:48:51.534Z,35.45
2023-04-09T09:49:51.448Z,32.62
2023-04-09T09:50:51.463Z,33.49
2023-04-09T09:51:51.527Z,32.61
2023-04-09T09:52:51.568Z,33.44
2023-04-09T09:53:51.555Z,32.54
2023-04-09T09:54:51.624Z,32.37
2023-04-09T09:55:51.626Z,34.34
2023-04-09T09:56:51.688Z,35.09
2023-04-09T09:57:51.701Z,33.50
2023-04-09T09:58:51.885Z,34.32
2023-04-09T09:59:51.780Z,35.09
2023-04-09T10:00:51.764Z,35.42
2023-04-09T10:01:51.831Z,35.65
2023-04-09T10:02:51.835Z,34.10
2023-04-09T10:03:51.811Z,36.04
2023-04-09T10:04:51.861Z,35.69
2023-04-09T10:05:51.812Z,35.78
2023-04-09T10:06:53.457Z,37.19
2023-04-09T10:07:51.832Z,39.25
2023-04-09T10:08:52.088Z,38.61
2023-04-09T10:09:51.838Z,37.87
2023-04-09T10:10:51.861Z,39.15
2023-04-09T10:11:51.852Z,38.46
2023-04-09T10:12:51.824Z,36.68
2023-04-09T10:13:52.843Z,37.88
2023-04-09T10:14:51.835Z,37.50
2023-04-09T10:15:51.884Z,40.35
2023-04-09T10:16:51.857Z,39.84
2023-04-09T10:17:51.952Z,39.82
2023-04-09T10:18:52.139Z,40.48
2023-04-09T10:19:51.947Z,40.77
2023-04-09T10:20:52.029Z,37.86
2023-04-09T10:21:52.064Z,36.85
2023-04-09T10:22:52.097Z,38.02
2023-04-09T10:23:52.138Z,41.22
2023-04-09T10:24:52.230Z,35.78
2023-04-09T10:25:52.256Z,40.03
2023-04-09T10:26:52.373Z,35.32
2023-04-09T10:27:52.417Z,40.96
2023-04-09T10:28:52.590Z,36.79
2023-04-09T10:29:52.566Z,32.94
2023-04-09T10:30:52.614Z,39.66
2023-04-09T10:31:52.611Z,35.88
2023-04-09T10:32:52.682Z,38.18
2023-04-09T10:33:52.724Z,35.68
2023-04-09T10:34:52.758Z,34.50
2023-04-09T10:35:52.890Z,35.39
2023-04-09T10:36:52.828Z,39.63
2023-04-09T10:37:52.893Z,37.55
2023-04-09T10:38:53.045Z,33.36
2023-04-09T10:39:52.908Z,38.94
2023-04-09T10:40:52.947Z,38.46
2023-04-09T10:41:52.974Z,35.82
2023-04-09T10:42:52.990Z,36.80
2023-04-09T10:43:53.034Z,38.49
2023-04-09T10:44:53.026Z,34.97
2023-04-09T10:45:53.029Z,38.38
2023-04-09T10:46:53.211Z,36.28
2023-04-09T10:47:53.126Z,34.83
2023-04-09T10:48:53.189Z,39.86
2023-04-09T10:49:53.074Z,34.48
2023-04-09T10:50:53.087Z,31.66
2023-04-09T10:51:53.095Z,33.37
2023-04-09T10:52:53.092Z,31.92
2023-04-09T10:53:53.139Z,36.19
2023-04-09T10:54:53.154Z,33.45
2023-04-09T10:55:53.152Z,32.64
2023-04-09T10:56:53.121Z,30.50
2023-04-09T10:57:53.125Z,30.78
2023-04-09T10:58:53.418Z,33.21
2023-04-09T10:59:53.151Z,32.44
2023-04-09T11:00:53.145Z,34.97
2023-04-09T11:01:53.280Z,33.05
2023-04-09T11:02:53.312Z,32.19
2023-04-09T11:03:53.223Z,32.24
2023-04-09T11:04:53.352Z,33.07
2023-04-09T11:05:53.290Z,35.32
2023-04-09T11:06:53.368Z,36.29
2023-04-09T11:07:53.406Z,31.92
2023-04-09T11:08:53.724Z,35.66
2023-04-09T11:09:53.481Z,36.34
2023-04-09T11:10:53.544Z,34.59
2023-04-09T11:11:53.627Z,33.10
2023-04-09T11:12:53.711Z,35.95
2023-04-09T11:13:53.738Z,35.61
2023-04-09T11:14:54.486Z,34.74
2023-04-09T11:15:53.882Z,32.53
2023-04-09T11:16:53.895Z,38.03
2023-04-09T11:17:54.089Z,35.02
2023-04-09T11:18:54.241Z,37.11
2023-04-09T11:19:54.070Z,35.06
2023-04-09T11:20:54.144Z,28.52
2023-04-09T11:21:54.211Z,31.19
2023-04-09T11:22:54.271Z,29.93
2023-04-09T11:23:54.322Z,32.29
2023-04-09T11:24:54.372Z,31.56
2023-04-09T11:25:54.448Z,32.90
2023-04-09T11:26:54.493Z,34.56
2023-04-09T11:27:54.545Z,35.09
2023-04-09T11:28:54.595Z,31.35
2023-04-09T11:29:54.606Z,32.31
2023-04-09T11:30:54.648Z,31.18
2023-04-09T11:31:54.745Z,30.13
2023-04-09T11:32:54.808Z,30.95
2023-04-09T11:33:54.805Z,30.75
2023-04-09T11:34:54.818Z,29.14
2023-04-09T11:35:54.872Z,28.36
2023-04-09T11:36:54.896Z,32.20
2023-04-09T11:37:54.918Z,34.12
2023-04-09T11:38:54.974Z,32.67
2023-04-09T11:39:56.788Z,34.99
2023-04-09T11:40:54.999Z,36.48
2023-04-09T11:41:55.009Z,34.81
2023-04-09T11:42:54.968Z,36.28
2023-04-09T11:43:54.988Z,36.34
2023-04-09T11:44:54.943Z,38.95
2023-04-09T11:45:57.517Z,38.04
2023-04-09T11:46:54.997Z,38.22
2023-04-09T11:47:54.991Z,38.22
2023-04-09T11:48:54.919Z,36.31
2023-04-09T11:49:54.912Z,37.98
2023-04-09T11:50:54.912Z,38.54
2023-04-09T11:51:54.918Z,36.18
2023-04-09T11:52:54.925Z,34.29
2023-04-09T11:53:54.908Z,35.99
2023-04-09T11:54:54.880Z,36.49
2023-04-09T11:55:54.897Z,36.51
2023-04-09T11:56:54.904Z,36.28
2023-04-09T11:57:54.876Z,34.37
2023-04-09T11:58:54.891Z,31.00
2023-04-09T11:59:54.848Z,31.56
2023-04-09T12:00:54.856Z,33.68
2023-04-09T12:01:54.896Z,29.66
2023-04-09T12:02:55.049Z,32.30
2023-04-09T12:03:55.288Z,34.77
2023-04-09T12:04:54.960Z,32.49
2023-04-09T12:05:54.846Z,31.73
2023-04-09T12:06:54.829Z,28.84
2023-04-09T12:07:56.753Z,31.82
2023-04-09T12:08:54.808Z,35.25
2023-04-09T12:09:54.826Z,32.41
2023-04-09T12:10:54.842Z,34.79
2023-04-09T12:11:54.806Z,34.16
2023-04-09T12:12:54.916Z,32.88
2023-04-09T12:13:54.802Z,31.20
2023-04-09T12:14:54.799Z,33.40
2023-04-09T12:15:54.730Z,32.26
2023-04-09T12:16:54.825Z,30.09
2023-04-09T12:17:54.835Z,31.11
2023-04-09T12:18:54.980Z,31.13
2023-04-09T12:19:54.752Z,36.68
2023-04-09T12:20:54.722Z,33.95
2023-04-09T12:21:54.745Z,34.19
2023-04-09T12:22:54.719Z,33.81
2023-04-09T12:23:54.730Z,34.53
2023-04-09T12:24:54.848Z,31.41
2023-04-09T12:25:54.908Z,35.51
2023-04-09T12:26:54.924Z,35.02
2023-04-09T12:27:54.976Z,35.88
2023-04-09T12:28:55.025Z,36.57
2023-04-09T12:29:55.098Z,33.79
2023-04-09T12:30:55.197Z,34.66
2023-04-09T12:31:55.254Z,37.67
2023-04-09T12:32:55.334Z,35.36
2023-04-09T12:33:55.331Z,37.82
2023-04-09T12:34:55.374Z,38.82
2023-04-09T12:35:55.495Z,38.50
2023-04-09T12:36:55.540Z,39.37
2023-04-09T12:37:55.567Z,39.19
2023-04-09T12:38:55.594Z,38.83
2023-04-09T12:39:55.656Z,39.72
2023-04-09T12:40:55.682Z,35.54
2023-04-09T12:41:55.776Z,37.97
2023-04-09T12:42:55.791Z,37.26
2023-04-09T12:43:55.890Z,38.89
2023-04-09T12:44:55.913Z,36.48
2023-04-09T12:45:55.997Z,37.99
2023-04-09T12:46:56.002Z,35.84
2023-04-09T12:47:56.066Z,34.59
2023-04-09T12:48:56.078Z,36.85
2023-04-09T12:49:56.086Z,32.82
2023-04-09T12:50:56.141Z,32.55
2023-04-09T12:51:56.200Z,31.63
2023-04-09T12:52:56.196Z,30.95
2023-04-09T12:53:56.208Z,28.64